Mid-Ohio Valley Regional (PKB)

 

Airport Diagram
Current Weather/Forecast (VFR Conditions)
METAR KPKB 211253Z 22009KT 10SM CLR 02/M06 A2985 RMK AO2 SLP113 T00171061
TAF KPKB 211324Z 2113/2212 23008G15KT P6SM SCT250 FM212300 24008KT P6SM FEW250 FM221100 26006KT P6SM OVC025

Airport Information

All Charts
General
Chart Name View
AIRPORT DIAGRAM
AIRPORT DIAGRAM
TAKEOFF MINIMUMS
ALTERNATE MINIMUMS
TAKEOFF MINIMUMS
ALTERNATE MINIMUMS

Approaches
Chart Name Download
ILS OR LOC RWY 03
RNAV (GPS) RWY 03
RNAV (GPS) RWY 10
RNAV (GPS) RWY 21
RNAV (GPS) RWY 28
VOR RWY 21
ILS OR LOC RWY 03
RNAV (GPS) RWY 03
RNAV (GPS) RWY 10
RNAV (GPS) RWY 21
RNAV (GPS) RWY 28
VOR RWY 21


Airport Statistics
Departures Arrivals Local
All Collected Stats since June 2016: 36 19 1
2021 Stats: 2 1 0
January Stats: 2 1 0

Inbound Traffic (Arrivals) - 0

No inbound traffic.


Outbound Traffic (Departures) - 0

No outbound traffic.


Local Traffic (Pattern) - 0

No local traffic.